This is the latest recevied weather packets stored in our database for station/object KE1THD. If no packets are shown the sender has not sent any weather packets the latest 1 day(s).
| Time | Temp. | Humidity | Pressure | Rain* | Wind** | Luminosity | Snow |
|---|---|---|---|---|---|---|---|
| 1778055073 | 6.11° C | 62% | 1012.9 hPa | 0 mm | - | 0 W/m² | - |
| 1778054467 | 6.11° C | 65% | 1012.7 hPa | 0 mm | - | 0 W/m² | - |
| 1778053861 | 6.11° C | 63% | 1012.6 hPa | 0 mm | - | 0 W/m² | - |
| 1778051743 | 6.67° C | 61% | 1012.6 hPa | 0 mm | - | 0 W/m² | - |
| 1778051440 | 6.67° C | 60% | 1012.6 hPa | 0 mm | - | 0 W/m² | - |
| 1778051137 | 6.67° C | 60% | 1012.4 hPa | 0 mm | - | 0 W/m² | - |
| 1778050834 | 6.67° C | 60% | 1012.3 hPa | 0 mm | - | 0 W/m² | - |
| 1778050532 | 6.67° C | 60% | 1012.3 hPa | 0 mm | - | 0 W/m² | - |
| 1778049621 | 7.22° C | 59% | 1012.4 hPa | 0 mm | - | 0 W/m² | - |
| 1778048411 | 7.78° C | 57% | 1012.4 hPa | 0 mm | - | 0 W/m² | - |
| 1778048107 | 7.78° C | 57% | 1012.1 hPa | 0 mm | - | 0 W/m² | - |
| 1778047805 | 7.78° C | 57% | 1012.3 hPa | 0 mm | - | 0 W/m² | - |
| 1778045081 | 8.89° C | 54% | 1012.1 hPa | 0 mm | - | 0 W/m² | - |
| 1778044778 | 8.89° C | 54% | 1012 hPa | 0 mm | - | 0 W/m² | - |
| 1778044475 | 8.89° C | 54% | 1012 hPa | 0 mm | - | 0 W/m² | - |
| 1778044172 | 8.89° C | 54% | 1011.9 hPa | 0 mm | - | 0 W/m² | - |
| 1778043870 | 8.89° C | 54% | 1011.7 hPa | 0 mm | - | 0 W/m² | - |
| 1778043263 | 9.44° C | 53% | 1011.7 hPa | 0 mm | - | 0 W/m² | - |
| 1778042960 | 9.44° C | 53% | 1011.6 hPa | 0 mm | - | 0 W/m² | - |
| 1778042355 | 9.44° C | 52% | 1011.5 hPa | 0 mm | - | 0 W/m² | - |
| 1778042052 | 10° C | 51% | 1011.2 hPa | 0 mm | - | 0 W/m² | - |
| 1778041750 | 10° C | 52% | 1011.1 hPa | 0 mm | - | 0 W/m² | - |
| 1778041449 | 10° C | 51% | 1011.2 hPa | 0 mm | - | 0 W/m² | - |
| 1778041147 | 10° C | 50% | 1011.6 hPa | 0 mm | - | 0 W/m² | - |
| 1778040844 | 10° C | 50% | 1011.4 hPa | 0 mm | - | 0 W/m² | - |
* Rain latest hour (hover to see other rain measurements)
** Current wind speed in m/s (hover to see current wind gust speed)